Time;durP1;ratioP1;P1;durP2;ratioP2;P2;SDS_P1;SDS_P2;PMS_P1;PMS_P2;Temp;Humidity;BMP_temperature;BMP_pressure;BME280_temperature;BME280_humidity;BME280_pressure;Samples;Min_cycle;Max_cycle;Signal;HPM_P1;HPM_P2
2024/03/22 00:02:10;;;;;;;31.45;10.32;;;;;;;7.85;100.00;98055.59;5010770;28;20404;-80
2024/03/22 00:04:36;;;;;;;31.92;9.95;;;;;;;7.82;100.00;98058.69;5025247;28;20735;-80
2024/03/22 00:07:03;;;;;;;27.30;10.23;;;;;;;7.78;100.00;98058.31;5024721;28;20393;-80
2024/03/22 00:09:29;;;;;;;29.87;9.27;;;;;;;7.76;100.00;98050.63;5025277;28;20571;-81
2024/03/22 00:11:55;;;;;;;29.33;10.65;;;;;;;7.72;100.00;98054.72;5027149;28;20464;-81
2024/03/22 00:14:21;;;;;;;32.33;10.60;;;;;;;7.69;100.00;98052.50;5013354;28;20945;-81
2024/03/22 00:16:48;;;;;;;38.35;13.20;;;;;;;7.68;100.00;98045.63;5025021;28;20408;-80
2024/03/22 00:19:15;;;;;;;43.60;13.90;;;;;;;7.61;100.00;98042.22;5025467;28;20404;-80
2024/03/22 00:21:41;;;;;;;48.88;14.93;;;;;;;7.54;100.00;98041.47;5024643;28;20397;-80
2024/03/22 00:24:08;;;;;;;49.83;16.37;;;;;;;7.48;100.00;98047.63;5024729;28;20455;-79
2024/03/22 00:26:34;;;;;;;55.45;17.42;;;;;;;7.42;100.00;98039.75;5025053;28;20401;-81
2024/03/22 00:29:00;;;;;;;54.43;17.40;;;;;;;7.37;100.00;98032.50;5024856;28;20468;-81
2024/03/22 00:31:26;;;;;;;50.38;15.85;;;;;;;7.34;100.00;98028.47;5011478;28;20445;-81
2024/03/22 00:33:53;;;;;;;44.97;13.90;;;;;;;7.34;100.00;98033.75;5013172;28;20490;-81
2024/03/22 00:36:20;;;;;;;38.97;13.03;;;;;;;7.34;100.00;98038.19;5018772;28;20409;-81
2024/03/22 00:38:47;;;;;;;44.00;13.57;;;;;;;7.33;100.00;98029.50;5016972;28;20405;-80
2024/03/22 00:41:13;;;;;;;57.63;17.77;;;;;;;7.28;100.00;98034.59;5026325;28;21090;-81
2024/03/22 00:43:39;;;;;;;50.05;15.68;;;;;;;7.21;100.00;98033.84;5009661;28;20410;-80
2024/03/22 00:46:05;;;;;;;47.10;15.47;;;;;;;7.18;100.00;98015.84;5023434;28;20404;-80
2024/03/22 00:48:32;;;;;;;52.80;15.80;;;;;;;7.15;100.00;98010.97;5024645;28;20392;-80
2024/03/22 00:50:58;;;;;;;56.00;17.50;;;;;;;7.12;100.00;98010.63;5023834;28;20475;-80
2024/03/22 00:53:26;;;;;;;45.55;15.38;;;;;;;7.08;100.00;98010.22;5009989;28;20422;-80
2024/03/22 00:55:53;;;;;;;54.57;16.63;;;;;;;7.11;100.00;98007.19;5012385;28;20405;-80
2024/03/22 00:58:19;;;;;;;51.13;16.53;;;;;;;7.08;100.00;98004.97;5010782;28;20409;-80
2024/03/22 01:00:46;;;;;;;50.70;15.93;;;;;;;7.05;100.00;97996.69;5018456;28;20413;-80
2024/03/22 01:03:12;;;;;;;43.03;15.15;;;;;;;7.00;100.00;97992.06;4999510;28;20399;-78
2024/03/22 01:05:39;;;;;;;43.08;14.35;;;;;;;6.96;100.00;97988.25;4997530;28;20407;-80
2024/03/22 01:08:06;;;;;;;42.70;13.00;;;;;;;6.91;100.00;97986.28;5006407;28;20411;-80
2024/03/22 01:10:34;;;;;;;41.13;12.60;;;;;;;6.91;100.00;97978.38;5012189;28;20409;-80
2024/03/22 01:13:00;;;;;;;54.05;17.00;;;;;;;6.88;100.00;97981.41;5015919;28;20804;-80
2024/03/22 01:15:26;;;;;;;50.40;15.93;;;;;;;6.87;100.00;97979.81;4998357;28;20399;-80
2024/03/22 01:17:53;;;;;;;66.82;18.38;;;;;;;6.84;100.00;97979.44;5000348;28;20410;-80
2024/03/22 01:20:20;;;;;;;63.38;18.40;;;;;;;6.84;100.00;97976.81;5011586;28;20400;-79
2024/03/22 01:22:46;;;;;;;52.17;17.00;;;;;;;6.80;100.00;97967.72;5013014;28;20407;-80
2024/03/22 01:25:12;;;;;;;47.33;15.88;;;;;;;6.80;100.00;97960.63;5016305;28;20444;-80
2024/03/22 01:27:39;;;;;;;50.83;17.85;;;;;;;6.72;100.00;97962.69;5006682;28;20467;-80
2024/03/22 01:30:06;;;;;;;60.28;20.75;;;;;;;6.70;100.00;97962.09;5010705;28;20409;-80
2024/03/22 01:32:33;;;;;;;61.17;20.48;;;;;;;6.68;100.00;97964.16;5001439;28;20434;-80
2024/03/22 01:34:59;;;;;;;62.28;21.45;;;;;;;6.72;100.00;97965.31;5017953;28;20424;-80
2024/03/22 01:37:25;;;;;;;60.90;20.17;;;;;;;6.65;100.00;97967.19;5002108;28;20819;-80
2024/03/22 01:39:51;;;;;;;53.03;18.45;;;;;;;6.60;100.00;97968.66;5017826;28;20438;-80
2024/03/22 01:42:17;;;;;;;55.72;18.95;;;;;;;6.52;100.00;97961.00;5020883;28;20446;-80
2024/03/22 01:44:45;;;;;;;60.50;19.45;;;;;;;6.51;100.00;97961.22;5013158;28;20769;-80
2024/03/22 01:47:11;;;;;;;57.90;19.80;;;;;;;6.49;100.00;97971.94;5020030;28;20410;-80
2024/03/22 01:49:38;;;;;;;66.50;21.15;;;;;;;6.46;100.00;97967.09;5000788;28;20395;-78
2024/03/22 01:52:04;;;;;;;72.55;20.27;;;;;;;6.46;100.00;97964.47;5001658;28;20827;-80
2024/03/22 01:54:31;;;;;;;53.25;17.70;;;;;;;6.44;100.00;97966.50;5019154;28;20511;-79
2024/03/22 01:56:57;;;;;;;51.88;18.08;;;;;;;6.37;100.00;97962.28;5009951;28;20490;-80
2024/03/22 01:59:25;;;;;;;53.88;17.92;;;;;;;6.33;100.00;97958.44;5013710;28;20451;-80
2024/03/22 02:01:52;;;;;;;48.08;16.63;;;;;;;6.28;100.00;97953.03;5029763;28;20435;-80
2024/03/22 02:04:19;;;;;;;46.63;16.43;;;;;;;6.28;100.00;97953.03;5016666;28;20442;-80
2024/03/22 02:06:45;;;;;;;55.70;17.65;;;;;;;6.24;100.00;97946.59;5022211;28;20906;-79
2024/03/22 02:09:11;;;;;;;60.80;20.10;;;;;;;6.23;100.00;97945.78;5021229;28;20727;-80
2024/03/22 02:11:39;;;;;;;53.75;18.30;;;;;;;6.25;100.00;97938.47;5012398;28;20404;-80
2024/03/22 02:14:05;;;;;;;62.93;19.70;;;;;;;6.21;100.00;97932.84;5011973;28;20572;-80
2024/03/22 02:16:31;;;;;;;55.80;18.77;;;;;;;6.13;100.00;97927.81;5011187;28;20405;-79
2024/03/22 02:18:59;;;;;;;50.53;18.13;;;;;;;6.10;100.00;97925.59;5018617;28;20885;-80
2024/03/22 02:21:25;;;;;;;50.93;17.37;;;;;;;6.10;100.00;97930.84;5004920;28;20955;-78
2024/03/22 02:23:52;;;;;;;66.50;20.42;;;;;;;6.03;100.00;97927.44;5013201;28;20408;-78
2024/03/22 02:26:18;;;;;;;67.07;20.75;;;;;;;5.99;100.00;97931.53;5020131;28;20821;-78
2024/03/22 02:28:45;;;;;;;67.30;20.33;;;;;;;6.01;100.00;97928.69;5014852;28;20415;-79
2024/03/22 02:31:11;;;;;;;68.07;20.75;;;;;;;6.02;100.00;97931.09;5026795;28;20402;-79
2024/03/22 02:33:37;;;;;;;73.47;21.93;;;;;;;6.07;100.00;97927.84;5015848;28;20433;-81
2024/03/22 02:36:04;;;;;;;66.43;21.23;;;;;;;5.99;100.00;97931.53;5022521;28;20401;-81
2024/03/22 02:38:31;;;;;;;62.40;20.13;;;;;;;5.97;100.00;97922.22;5011822;28;20401;-80
2024/03/22 02:40:58;;;;;;;67.67;20.43;;;;;;;5.98;100.00;97923.84;5017650;28;20410;-81
2024/03/22 02:43:25;;;;;;;65.13;20.52;;;;;;;6.01;100.00;97932.13;5013231;28;20442;-80
2024/03/22 02:45:51;;;;;;;80.40;21.67;;;;;;;6.01;100.00;97919.00;5006831;28;20477;-80
2024/03/22 02:48:17;;;;;;;68.72;20.98;;;;;;;6.01;100.00;97919.00;5013786;28;20433;-80
2024/03/22 02:50:43;;;;;;;62.83;20.20;;;;;;;6.03;100.00;97913.50;5013482;28;20853;-80
2024/03/22 02:53:10;;;;;;;57.40;17.90;;;;;;;5.99;100.00;97913.13;5009083;28;20439;-80
2024/03/22 02:55:38;;;;;;;65.80;18.42;;;;;;;6.02;100.00;97898.75;5017136;28;20404;-80
2024/03/22 02:58:06;;;;;;;57.47;17.67;;;;;;;6.04;100.00;97900.16;5024517;28;20400;-80
2024/03/22 03:00:35;;;;;;;75.22;20.42;;;;;;;6.09;100.00;97896.91;5014883;28;20465;-80
2024/03/22 03:03:01;;;;;;;71.50;19.98;;;;;;;6.12;100.00;97907.00;5021853;28;20397;-80
2024/03/22 03:05:27;;;;;;;60.17;18.57;;;;;;;6.18;100.00;97908.78;5010895;28;20409;-80
2024/03/22 03:07:53;;;;;;;72.10;20.13;;;;;;;6.24;100.00;97904.53;5016913;28;20437;-80
2024/03/22 03:10:19;;;;;;;62.65;19.30;;;;;;;6.28;100.00;97901.25;5025051;28;20404;-80
2024/03/22 03:12:46;;;;;;;68.18;20.58;;;;;;;6.36;100.00;97902.84;5025148;28;20405;-80
2024/03/22 03:15:13;;;;;;;92.00;24.38;;;;;;;6.44;100.00;97900.75;5025148;28;20424;-80
2024/03/22 03:17:39;;;;;;;91.15;24.92;;;;;;;6.57;100.00;97894.59;5024763;28;20424;-80
2024/03/22 03:20:10;;;;;;;89.03;24.67;;;;;;;6.76;100.00;97901.56;5024545;28;20854;-80
2024/03/22 03:22:36;;;;;;;85.75;25.90;;;;;;;6.96;100.00;97899.56;5010017;28;20413;-81
2024/03/22 03:25:04;;;;;;;89.25;25.70;;;;;;;7.11;100.00;97896.63;5015070;28;20445;-80
2024/03/22 03:27:30;;;;;;;81.47;24.55;;;;;;;7.21;100.00;97896.13;5024563;28;20413;-80
2024/03/22 03:29:56;;;;;;;78.00;23.33;;;;;;;7.31;100.00;97897.22;5008669;28;20410;-81
2024/03/22 03:32:25;;;;;;;75.57;22.30;;;;;;;7.35;100.00;97898.41;5026657;28;20408;-81
2024/03/22 03:34:51;;;;;;;76.25;23.40;;;;;;;7.33;100.00;97894.38;5018239;28;20431;-80
2024/03/22 03:37:17;;;;;;;65.00;23.40;;;;;;;7.42;100.00;97887.00;5005479;28;20417;-81
2024/03/22 03:39:43;;;;;;;68.90;21.80;;;;;;;7.46;100.00;97886.34;5020720;28;20412;-80
2024/03/22 03:42:10;;;;;;;69.97;22.52;;;;;;;7.47;100.00;97884.50;5017359;28;20409;-80
2024/03/22 03:44:36;;;;;;;68.63;22.55;;;;;;;7.46;100.00;97878.44;5024843;28;20401;-81
2024/03/22 03:47:02;;;;;;;65.35;22.38;;;;;;;7.47;100.00;97881.88;5024663;28;20411;-81
2024/03/22 03:49:30;;;;;;;59.97;21.27;;;;;;;7.49;100.00;97871.94;5010913;28;20438;-81
2024/03/22 03:51:56;;;;;;;66.00;23.30;;;;;;;7.53;100.00;97873.91;5012537;28;20397;-81
2024/03/22 03:54:22;;;;;;;70.57;22.65;;;;;;;7.47;100.00;97873.97;5017838;28;20413;-80
2024/03/22 03:56:48;;;;;;;57.58;21.88;;;;;;;7.46;100.00;97875.00;5020047;28;20408;-79
2024/03/22 03:59:15;;;;;;;63.42;21.48;;;;;;;7.47;100.00;97872.16;5025855;28;20487;-81
2024/03/22 04:01:41;;;;;;;57.58;21.13;;;;;;;7.42;100.00;97874.66;5025189;28;20407;-80
2024/03/22 04:04:07;;;;;;;55.95;20.67;;;;;;;7.39;100.00;97865.34;5013724;28;20445;-80
2024/03/22 04:06:34;;;;;;;59.35;20.65;;;;;;;7.40;100.00;97868.78;5012447;28;20440;-81
2024/03/22 04:09:02;;;;;;;56.85;20.67;;;;;;;7.35;100.00;97871.28;5009756;28;20406;-80
2024/03/22 04:11:28;;;;;;;63.07;21.27;;;;;;;7.33;100.00;97868.03;5010540;28;20406;-80
2024/03/22 04:13:55;;;;;;;57.28;19.35;;;;;;;7.27;100.00;97872.38;5013630;28;20902;-81
2024/03/22 04:16:21;;;;;;;55.97;20.37;;;;;;;7.19;100.00;97864.75;5023592;28;20417;-80
2024/03/22 04:18:47;;;;;;;57.88;20.50;;;;;;;7.25;100.00;97863.06;5024041;28;20400;-80
2024/03/22 04:21:13;;;;;;;56.20;20.27;;;;;;;7.31;100.00;97870.91;5023613;28;20408;-80
2024/03/22 04:23:41;;;;;;;56.60;20.27;;;;;;;7.35;100.00;97872.09;5023432;28;20516;-80
2024/03/22 04:26:07;;;;;;;56.30;20.42;;;;;;;7.56;100.00;97865.56;5023811;28;20401;-80
2024/03/22 04:28:33;;;;;;;57.10;20.90;;;;;;;7.54;100.00;97854.44;5024138;28;20495;-80
2024/03/22 04:31:01;;;;;;;54.88;18.88;;;;;;;7.56;100.00;97856.88;5024709;28;20955;-80
2024/03/22 04:33:27;;;;;;;49.50;19.73;;;;;;;7.66;100.00;97867.69;5018798;28;20426;-81
2024/03/22 04:35:54;;;;;;;47.33;19.38;;;;;;;7.78;100.00;97861.47;5013351;28;20399;-81
2024/03/22 04:38:20;;;;;;;43.45;17.98;;;;;;;7.88;100.00;97871.50;5024176;28;20409;-81
2024/03/22 04:40:47;;;;;;;44.97;18.05;;;;;;;7.82;100.00;97867.09;5024658;28;20425;-80
2024/03/22 04:43:14;;;;;;;49.55;18.95;;;;;;;7.84;100.00;97870.31;5023780;28;20404;-80
2024/03/22 04:45:42;;;;;;;39.33;16.92;;;;;;;7.88;100.00;97870.69;5022979;28;20771;-80
2024/03/22 04:48:08;;;;;;;40.42;17.08;;;;;;;7.91;100.00;97873.66;5022433;28;20435;-80
2024/03/22 04:50:35;;;;;;;39.38;16.75;;;;;;;7.97;100.00;97877.28;5020658;28;20459;-76
2024/03/22 04:53:01;;;;;;;40.50;16.45;;;;;;;8.00;100.00;97874.97;5003285;28;20406;-81
2024/03/22 04:55:27;;;;;;;41.53;16.88;;;;;;;8.00;100.00;97877.59;5018980;28;20482;-81
2024/03/22 04:57:55;;;;;;;41.78;14.88;;;;;;;8.03;100.00;97879.00;5023988;28;20404;-82
2024/03/22 05:00:22;;;;;;;35.72;14.90;;;;;;;8.02;100.00;97872.94;5029626;28;20407;-81
2024/03/22 05:02:48;;;;;;;47.40;14.85;;;;;;;8.02;100.00;97874.75;5021009;28;20408;-79
2024/03/22 05:05:14;;;;;;;36.35;15.38;;;;;;;8.09;100.00;97881.56;5023309;28;20405;-78
2024/03/22 05:07:41;;;;;;;34.23;14.20;;;;;;;8.11;100.00;97876.06;5026550;28;20432;-77
2024/03/22 05:10:09;;;;;;;34.83;14.23;;;;;;;8.02;100.00;97874.75;5017835;28;20402;-79
2024/03/22 05:12:35;;;;;;;37.27;14.87;;;;;;;8.02;100.00;97875.56;5018671;28;20491;-77
2024/03/22 05:15:03;;;;;;;28.75;12.23;;;;;;;8.00;100.00;97872.34;5014304;28;20437;-79
2024/03/22 05:17:31;;;;;;;31.17;12.00;;;;;;;8.01;100.00;97873.94;5014677;28;20418;-76
2024/03/22 05:19:58;;;;;;;25.80;12.20;;;;;;;7.99;100.00;97875.19;5005763;28;20812;-76
2024/03/22 05:22:24;;;;;;;31.95;11.93;;;;;;;7.95;100.00;97866.13;4997127;28;20481;-77
2024/03/22 05:24:51;;;;;;;35.08;12.77;;;;;;;7.92;100.00;97864.72;5003104;28;20412;-77
2024/03/22 05:27:18;;;;;;;27.83;12.35;;;;;;;7.86;100.00;97860.34;5003476;28;20450;-78
2024/03/22 05:29:44;;;;;;;25.60;11.25;;;;;;;7.85;100.00;97857.94;5009847;28;20401;-78
2024/03/22 05:32:12;;;;;;;28.52;12.23;;;;;;;7.85;100.00;97860.56;5004843;28;21129;-77
2024/03/22 05:34:38;;;;;;;33.40;12.03;;;;;;;7.83;100.00;97852.06;5002935;28;20425;-77
2024/03/22 05:37:04;;;;;;;31.02;11.82;;;;;;;7.84;100.00;97856.31;5016047;28;20442;-77
2024/03/22 05:39:30;;;;;;;26.95;12.13;;;;;;;7.82;100.00;97851.28;5015486;28;20405;-78
2024/03/22 05:41:56;;;;;;;27.70;11.60;;;;;;;7.81;100.00;97854.97;5005091;28;20490;-78
2024/03/22 05:44:23;;;;;;;32.40;12.43;;;;;;;7.81;100.00;97848.88;5011850;28;20404;-78
2024/03/22 05:46:49;;;;;;;27.58;11.80;;;;;;;7.80;100.00;97845.44;5011901;28;20407;-78
2024/03/22 05:49:16;;;;;;;29.98;12.45;;;;;;;7.77;100.00;97841.41;5015611;28;20454;-78
2024/03/22 05:51:42;;;;;;;33.13;12.73;;;;;;;7.74;100.00;97833.94;5011442;28;20397;-79
2024/03/22 05:54:09;;;;;;;32.70;13.35;;;;;;;7.83;100.00;97837.06;5019640;28;20421;-79
2024/03/22 05:56:35;;;;;;;29.55;12.10;;;;;;;7.87;100.00;97832.97;5020463;28;20846;-79
2024/03/22 05:59:01;;;;;;;32.63;12.45;;;;;;;7.87;100.00;97834.81;5020413;28;20423;-79
2024/03/22 06:01:34;;;;;;;32.72;12.70;;;;;;;7.89;100.00;97824.84;5021175;28;20944;-82
2024/03/22 06:04:00;;;;;;;33.83;13.03;;;;;;;8.00;100.00;97827.53;5017899;28;20425;-80
2024/03/22 06:06:27;;;;;;;30.83;12.55;;;;;;;8.07;100.00;97822.16;5016491;28;20406;-80
2024/03/22 06:08:54;;;;;;;24.30;11.00;;;;;;;8.10;100.00;97821.72;5006981;28;20401;-79
2024/03/22 06:11:23;;;;;;;24.48;11.25;;;;;;;8.12;100.00;97830.19;5008116;28;20404;-80
2024/03/22 06:13:51;;;;;;;25.50;10.98;;;;;;;8.13;100.00;97821.25;5004563;28;20989;-80
2024/03/22 06:16:17;;;;;;;25.20;11.27;;;;;;;8.14;100.00;97823.69;5002073;28;20411;-78
2024/03/22 06:18:43;;;;;;;23.37;10.57;;;;;;;8.13;100.00;97823.91;5013730;28;20910;-79
2024/03/22 06:21:09;;;;;;;29.63;10.60;;;;;;;8.11;100.00;97823.34;5001892;28;20425;-79
2024/03/22 06:23:36;;;;;;;19.77;9.17;;;;;;;8.10;100.00;97821.72;5011722;28;20437;-78
2024/03/22 06:26:03;;;;;;;26.30;9.95;;;;;;;8.05;100.00;97821.56;5015107;28;20432;-78
2024/03/22 06:28:29;;;;;;;22.73;9.70;;;;;;;8.01;100.00;97820.41;5011530;28;20701;-80
2024/03/22 06:30:55;;;;;;;19.73;8.80;;;;;;;8.01;100.00;97820.41;5013058;28;20393;-79
2024/03/22 06:33:21;;;;;;;20.33;9.63;;;;;;;7.97;100.00;97825.31;5009023;28;20808;-79
2024/03/22 06:35:48;;;;;;;19.65;8.75;;;;;;;8.01;100.00;97823.06;5011824;28;20401;-79
2024/03/22 06:38:14;;;;;;;19.77;8.85;;;;;;;8.07;100.00;97812.41;5006327;28;20408;-79
2024/03/22 06:40:41;;;;;;;22.45;8.57;;;;;;;8.15;100.00;97817.38;5014965;28;20415;-79
2024/03/22 06:43:08;;;;;;;18.83;8.90;;;;;;;8.28;100.00;97812.94;5012141;28;20405;-79
2024/03/22 06:45:35;;;;;;;14.90;7.80;;;;;;;8.41;100.00;97807.50;5010179;28;20508;-78
2024/03/22 06:48:01;;;;;;;15.98;7.05;;;;;;;8.53;100.00;97816.22;5007825;28;20459;-79
2024/03/22 06:50:27;;;;;;;20.17;9.95;;;;;;;8.62;100.00;97806.16;5007606;28;20571;-79
2024/03/22 06:52:54;;;;;;;21.58;10.15;;;;;;;8.73;100.00;97810.63;5007572;28;20393;-79
2024/03/22 06:55:20;;;;;;;22.52;9.43;;;;;;;8.85;100.00;97809.63;5010643;28;20434;-79
2024/03/22 06:57:48;;;;;;;17.85;8.50;;;;;;;9.05;100.00;97814.53;5002920;28;20992;-79
2024/03/22 07:00:15;;;;;;;17.00;7.77;;;;;;;9.15;100.00;97814.78;5011733;28;20405;-79
2024/03/22 07:02:42;;;;;;;16.25;7.95;;;;;;;9.20;100.00;97822.00;4996584;28;20402;-78
2024/03/22 07:05:08;;;;;;;13.65;7.22;;;;;;;9.28;100.00;97813.72;5002902;28;20830;-80
2024/03/22 07:07:35;;;;;;;17.55;7.95;;;;;;;9.39;100.00;97817.38;5019289;28;20743;-79
2024/03/22 07:10:01;;;;;;;12.88;6.95;;;;;;;9.45;100.00;97808.53;5009873;28;20457;-79
2024/03/22 07:12:27;;;;;;;18.30;8.80;;;;;;;9.60;100.00;97814.94;5004397;28;20401;-79
2024/03/22 07:14:56;;;;;;;18.35;8.55;;;;;;;9.50;100.00;97804.16;5000018;28;20989;-78
2024/03/22 07:17:24;;;;;;;17.27;8.52;;;;;;;9.50;100.00;97792.75;5006875;28;20413;-79
2024/03/22 07:19:51;;;;;;;21.60;8.88;;;;;;;9.63;100.00;97784.56;5007094;28;20405;-79
2024/03/22 07:22:17;;;;;;;19.15;8.07;;;;;;;9.81;100.00;97792.31;5014881;28;20409;-79
2024/03/22 07:24:43;;;;;;;17.10;8.25;;;;;;;9.81;100.00;97794.97;5008010;28;20481;-79
2024/03/22 07:27:09;;;;;;;14.95;8.20;;;;;;;9.94;100.00;97793.88;5013368;28;20408;-78
2024/03/22 07:29:35;;;;;;;15.90;8.57;;;;;;;10.10;100.00;97779.88;5006385;28;20414;-79
2024/03/22 07:32:03;;;;;;;15.93;8.23;;;;;;;10.22;100.00;97787.81;5006665;28;20775;-79
2024/03/22 07:34:29;;;;;;;16.30;8.20;;;;;;;10.21;100.00;97779.06;5014831;28;20434;-79
2024/03/22 07:36:55;;;;;;;17.80;8.43;;;;;;;10.41;100.00;97775.94;5007091;28;20430;-79
2024/03/22 07:39:21;;;;;;;18.08;8.35;;;;;;;10.54;100.00;97769.53;5014884;28;20916;-79
2024/03/22 07:41:49;;;;;;;14.18;8.30;;;;;;;10.60;100.00;97774.66;5016998;28;20487;-78
2024/03/22 07:44:17;;;;;;;15.20;8.37;;;;;;;10.82;100.00;97780.84;5013237;28;20961;-80
2024/03/22 07:46:43;;;;;;;14.38;7.97;;;;;;;10.72;100.00;97782.53;5006319;28;20408;-78
2024/03/22 07:49:11;;;;;;;15.45;7.70;;;;;;;10.80;100.00;97774.19;5000464;28;20508;-77
2024/03/22 07:51:37;;;;;;;20.38;7.80;;;;;;;10.78;100.00;97766.47;5010096;28;20449;-79
2024/03/22 07:54:03;;;;;;;14.05;7.30;;;;;;;10.90;100.00;97769.00;5010696;28;20436;-78
2024/03/22 07:56:30;;;;;;;16.90;8.02;;;;;;;11.06;100.00;97781.44;5009038;28;20409;-79
2024/03/22 07:58:56;;;;;;;15.38;7.68;;;;;;;11.25;100.00;97774.81;4998093;28;20429;-78
2024/03/22 08:01:23;;;;;;;15.65;7.35;;;;;;;11.14;100.00;97762.47;5001450;28;20414;-78
2024/03/22 08:03:49;;;;;;;12.32;6.45;;;;;;;11.13;100.00;97763.50;5003035;28;20418;-77
2024/03/22 08:06:16;;;;;;;13.55;6.78;;;;;;;11.29;100.00;97767.16;4998664;28;20410;-79
2024/03/22 08:08:42;;;;;;;15.47;7.60;;;;;;;11.64;100.00;97783.50;5014544;28;20503;-78
2024/03/22 08:11:09;;;;;;;12.77;6.57;;;;;;;11.72;100.00;97776.97;5014274;28;21098;-79
2024/03/22 08:13:35;;;;;;;12.82;6.80;;;;;;;11.96;100.00;97770.34;4998744;28;20444;-78
2024/03/22 08:16:01;;;;;;;13.48;7.65;;;;;;;12.21;100.00;97753.06;4994311;28;20682;-77
2024/03/22 08:18:28;;;;;;;13.25;7.53;;;;;;;12.23;100.00;97749.13;5007154;28;20462;-77
2024/03/22 08:20:54;;;;;;;10.35;6.18;;;;;;;12.29;100.00;97744.66;5005207;28;20791;-78
2024/03/22 08:23:22;;;;;;;13.18;6.63;;;;;;;12.26;100.00;97735.31;5005183;28;20400;-78
2024/03/22 08:25:48;;;;;;;16.95;6.95;;;;;;;12.29;100.00;97732.19;5012849;28;20393;-77
2024/03/22 08:28:15;;;;;;;15.40;7.03;;;;;;;12.54;100.00;97726.28;5001717;28;20402;-77
2024/03/22 08:30:44;;;;;;;11.00;5.75;;;;;;;12.87;100.00;97740.28;5000929;28;20401;-77
2024/03/22 08:33:11;;;;;;;11.52;5.57;;;;;;;13.14;100.00;97735.69;5005021;28;20409;-76
2024/03/22 08:35:38;;;;;;;11.15;5.70;;;;;;;13.65;100.00;97741.19;4998983;28;20418;-77
2024/03/22 08:38:09;;;;;;;14.18;5.75;;;;;;;14.11;100.00;97729.59;5001428;28;20499;-78
2024/03/22 08:40:37;;;;;;;11.45;6.03;;;;;;;14.04;100.00;97714.94;5005182;28;20412;-77
2024/03/22 08:43:03;;;;;;;13.20;6.10;;;;;;;14.22;100.00;97719.72;5005135;28;20741;-76
2024/03/22 08:45:29;;;;;;;14.37;5.93;;;;;;;14.22;100.00;97714.41;5007320;28;20444;-77
2024/03/22 08:47:56;;;;;;;13.23;6.50;;;;;;;14.20;100.00;97716.56;5006869;28;20414;-80
2024/03/22 08:50:22;;;;;;;10.75;5.40;;;;;;;14.14;100.00;97713.06;5006615;28;20491;-77
2024/03/22 08:52:48;;;;;;;7.80;4.53;;;;;;;14.37;100.00;97718.94;5005705;28;20794;-75
2024/03/22 08:55:14;;;;;;;13.20;5.30;;;;;;;14.28;100.00;97716.03;5002765;28;20410;-75
2024/03/22 08:57:41;;;;;;;9.70;5.15;;;;;;;14.30;100.00;97708.53;5007853;28;20416;-77
2024/03/22 09:00:09;;;;;;;9.87;5.67;;;;;;;14.34;100.00;97707.75;5000723;28;20854;-77
2024/03/22 09:02:35;;;;;;;14.05;5.47;;;;;;;14.20;100.00;97704.03;5003554;28;20427;-76
2024/03/22 09:05:02;;;;;;;8.88;4.25;;;;;;;14.32;100.00;97706.44;5003108;28;20409;-76
2024/03/22 09:07:28;;;;;;;6.93;4.05;;;;;;;14.70;100.00;97707.75;5004107;28;20406;-76
2024/03/22 09:09:54;;;;;;;12.95;5.57;;;;;;;14.95;100.00;97704.25;5003820;28;20419;-77
2024/03/22 09:12:20;;;;;;;8.77;4.30;;;;;;;15.24;100.00;97701.75;5003221;28;22044;-77
2024/03/22 09:14:47;;;;;;;12.00;5.32;;;;;;;15.61;100.00;97702.13;5001907;28;20795;-77
2024/03/22 09:17:14;;;;;;;7.57;4.05;;;;;;;15.71;100.00;97695.94;5005153;28;20495;-76
2024/03/22 09:19:40;;;;;;;10.95;4.50;;;;;;;15.80;100.00;97694.25;4999362;28;20404;-77
2024/03/22 09:22:06;;;;;;;10.10;4.47;;;;;;;16.12;100.00;97683.91;5005088;28;20428;-80
2024/03/22 09:24:33;;;;;;;10.30;5.33;;;;;;;16.20;100.00;97685.97;4996634;28;20442;-78
2024/03/22 09:26:59;;;;;;;13.10;4.60;;;;;;;16.26;100.00;97679.50;5001072;28;20460;-76
2024/03/22 09:29:25;;;;;;;6.68;3.92;;;;;;;16.35;100.00;97679.69;4994622;28;20453;-77
2024/03/22 09:31:52;;;;;;;8.07;3.78;;;;;;;16.62;100.00;97673.84;5007060;28;20762;-78
2024/03/22 09:34:19;;;;;;;6.85;3.35;;;;;;;17.34;100.00;97667.44;5000210;28;20936;-79
2024/03/22 09:36:46;;;;;;;4.55;2.67;;;;;;;17.71;100.00;97660.53;5002548;28;20493;-78
2024/03/22 09:39:12;;;;;;;5.13;2.08;;;;;;;18.27;100.00;97663.13;5007964;28;20411;-78
2024/03/22 09:41:43;;;;;;;4.10;2.30;;;;;;;18.70;100.00;97660.28;4996577;28;20954;-78
2024/03/22 09:44:16;;;;;;;7.90;3.70;;;;;;;18.61;100.00;97662.06;5008276;28;20495;-78
2024/03/22 09:46:43;;;;;;;8.73;4.20;;;;;;;19.25;100.00;97645.75;5007322;28;20395;-77
2024/03/22 09:49:11;;;;;;;6.03;3.50;;;;;;;18.78;100.00;97649.66;5002808;28;20398;-78
2024/03/22 09:51:39;;;;;;;6.18;3.13;;;;;;;18.69;100.00;97643.41;4997094;28;20437;-78
2024/03/22 09:54:05;;;;;;;7.15;3.83;;;;;;;18.37;100.00;97646.09;5013316;28;20527;-78
2024/03/22 09:56:31;;;;;;;8.30;2.97;;;;;;;18.84;100.00;97643.09;4996540;28;20401;-78
2024/03/22 09:58:58;;;;;;;4.80;2.38;;;;;;;19.07;100.00;97638.63;5002408;28;20405;-79
2024/03/22 10:01:24;;;;;;;6.25;3.00;;;;;;;19.56;100.00;97627.13;5012733;28;20410;-79
2024/03/22 10:03:52;;;;;;;4.05;2.47;;;;;;;19.91;100.00;97619.38;5012364;28;20418;-79
2024/03/22 10:06:19;;;;;;;5.00;2.17;;;;;;;20.34;100.00;97619.66;5010521;28;20393;-78
2024/03/22 10:08:45;;;;;;;10.70;3.95;;;;;;;20.01;100.00;97621.78;5011230;28;20506;-78
2024/03/22 10:11:12;;;;;;;6.57;3.05;;;;;;;19.75;100.00;97618.13;5016408;28;20858;-78
2024/03/22 10:13:38;;;;;;;5.03;2.38;;;;;;;19.97;100.00;97618.13;5013083;28;20491;-78
2024/03/22 10:16:05;;;;;;;3.20;2.00;;;;;;;20.02;100.00;97612.63;5008564;28;20404;-77
2024/03/22 10:18:33;;;;;;;2.92;1.67;;;;;;;20.08;100.00;97604.13;5006822;28;20455;-77
2024/03/22 10:21:00;;;;;;;3.60;1.90;;;;;;;20.07;100.00;97605.22;5010867;28;20801;-76
2024/03/22 10:23:28;;;;;;;3.55;2.08;;;;;;;20.15;100.00;97602.94;5006508;28;20393;-78
2024/03/22 10:25:56;;;;;;;5.63;3.03;;;;;;;20.17;100.00;97598.81;5005459;28;20428;-77
2024/03/22 10:28:22;;;;;;;3.55;2.50;;;;;;;20.46;100.00;97588.41;5005831;28;20403;-78
2024/03/22 10:30:50;;;;;;;3.17;1.63;;;;;;;21.10;100.00;97583.38;5006531;28;20821;-78
2024/03/22 10:33:18;;;;;;;5.90;2.47;;;;;;;21.66;100.00;97581.69;4999304;28;20405;-78
2024/03/22 10:35:46;;;;;;;10.13;3.08;;;;;;;21.77;100.00;97574.88;5008326;28;20484;-77
2024/03/22 10:38:13;;;;;;;5.50;2.88;;;;;;;21.90;100.00;97573.13;5011358;28;20401;-77
2024/03/22 10:40:43;;;;;;;3.83;2.35;;;;;;;21.98;100.00;97565.06;4994091;28;20974;-77
2024/03/22 10:43:10;;;;;;;4.28;2.33;;;;;;;22.18;100.00;97565.47;5013300;28;20440;-77
2024/03/22 10:45:38;;;;;;;2.83;1.70;;;;;;;22.68;100.00;97557.53;4999306;28;20406;-77
2024/03/22 10:48:08;;;;;;;8.27;2.83;;;;;;;22.94;100.00;97550.09;5012613;28;20875;-77
2024/03/22 10:50:38;;;;;;;4.70;2.58;;;;;;;23.57;100.00;97553.66;5014578;28;20547;-77
2024/03/22 10:53:07;;;;;;;4.03;2.28;;;;;;;23.57;100.00;97540.13;5013760;28;20403;-78
2024/03/22 10:55:35;;;;;;;2.65;1.55;;;;;;;23.69;100.00;97536.69;5013635;28;20913;-78
2024/03/22 10:58:03;;;;;;;3.35;2.03;;;;;;;23.81;100.00;97534.84;4997386;28;20406;-77
2024/03/22 11:00:29;;;;;;;2.45;1.48;;;;;;;24.12;100.00;97528.94;5007832;28;20402;-77
2024/03/22 11:02:56;;;;;;;3.08;1.60;;;;;;;24.76;100.00;97522.91;5003458;28;20389;-78
2024/03/22 11:05:22;;;;;;;1.83;1.30;;;;;;;25.39;100.00;97524.06;5013857;28;20396;-77
2024/03/22 11:07:59;;;;;;;2.40;1.30;;;;;;;26.20;100.00;97522.00;5006548;28;20411;-78
2024/03/22 11:10:29;;;;;;;5.75;2.72;;;;;;;26.86;100.00;97515.84;5013744;28;20419;-78
2024/03/22 11:12:56;;;;;;;5.47;2.70;;;;;;;26.39;99.22;97507.78;4997388;28;20402;-78
2024/03/22 11:15:24;;;;;;;9.25;2.10;;;;;;;26.19;100.00;97512.28;5005914;28;20429;-78
2024/03/22 11:17:50;;;;;;;3.13;2.00;;;;;;;25.87;100.00;97508.75;5007533;28;20398;-78